Terminal Aerodrome Forecast
Issued by NWS

Home | Current Version | Previous Version | Text Only | Print | Product List | Glossary On
Versions: 1 2 3 4 5 6 7 8 9 10 11 12
000
FTUS44 KLZK 211738
TAFPBF
TAF
KPBF 211738Z 2118/2218 20006KT P6SM SCT045 SCT250
     FM220000 VRB03KT P6SM SCT250
     FM221500 21006KT P6SM SCT045 SCT250=

USA.gov is the U.S. government's official web portal to all federal, state and local government web resources and services.